Time;durP1;ratioP1;P1;durP2;ratioP2;P2;SDS_P1;SDS_P2;PMS_P1;PMS_P2;Temp;Humidity;BMP_temperature;BMP_pressure;BME280_temperature;BME280_humidity;BME280_pressure;Samples;Min_cycle;Max_cycle;Signal;HPM_P1;HPM_P2
2022/03/11 00:00:02;;;;;;;25.80;12.63;;;2.60;37.40;;;;;;5072046;28;20190;-61
2022/03/11 00:02:29;;;;;;;37.75;19.00;;;2.60;37.90;;;;;;5073429;28;20194;-61
2022/03/11 00:04:56;;;;;;;19.77;10.40;;;2.50;38.10;;;;;;5073279;28;20267;-62
2022/03/11 00:07:23;;;;;;;26.88;13.93;;;2.50;38.10;;;;;;5073987;28;20201;-61
2022/03/11 00:09:50;;;;;;;19.50;11.68;;;2.50;38.70;;;;;;5073094;28;20193;-64
2022/03/11 00:12:17;;;;;;;17.25;9.60;;;2.40;38.40;;;;;;5073812;28;20228;-62
2022/03/11 00:14:45;;;;;;;15.73;10.38;;;2.40;37.80;;;;;;5073537;28;20194;-61
2022/03/11 00:17:13;;;;;;;21.05;10.75;;;2.30;38.00;;;;;;5074012;28;20201;-61
2022/03/11 00:19:40;;;;;;;17.70;9.45;;;2.30;38.00;;;;;;5073177;28;20194;-62
2022/03/11 00:22:07;;;;;;;13.73;8.88;;;2.30;38.10;;;;;;5073726;28;20201;-62
2022/03/11 00:24:34;;;;;;;13.73;7.53;;;2.20;37.80;;;;;;5073437;28;20194;-65
2022/03/11 00:27:01;;;;;;;13.55;11.02;;;2.20;38.20;;;;;;5073870;28;20206;-62
2022/03/11 00:29:28;;;;;;;16.98;9.85;;;2.10;38.20;;;;;;5073434;28;20240;-63
2022/03/11 00:31:55;;;;;;;12.85;8.85;;;2.10;38.50;;;;;;5073288;28;20185;-62
2022/03/11 00:34:24;;;;;;;12.48;7.85;;;2.00;39.10;;;;;;5074008;28;20194;-61
2022/03/11 00:36:51;;;;;;;12.88;8.10;;;2.00;38.80;;;;;;5073238;28;20244;-61
2022/03/11 00:39:18;;;;;;;16.15;8.38;;;1.90;39.00;;;;;;5073049;28;20213;-62
2022/03/11 00:41:45;;;;;;;14.45;7.80;;;1.80;39.00;;;;;;5073197;28;20221;-61
2022/03/11 00:44:12;;;;;;;12.60;7.93;;;1.80;40.00;;;;;;5073006;28;20194;-62
2022/03/11 00:46:39;;;;;;;11.10;7.20;;;1.70;40.10;;;;;;5073536;28;20194;-61
2022/03/11 00:49:06;;;;;;;8.68;6.28;;;1.70;40.20;;;;;;5070109;28;20194;-65
2022/03/11 00:51:34;;;;;;;11.30;7.22;;;1.70;40.30;;;;;;5072765;28;20247;-62
2022/03/11 00:54:02;;;;;;;10.57;6.50;;;1.70;40.80;;;;;;5072696;28;20212;-62
2022/03/11 00:56:30;;;;;;;10.43;7.00;;;1.60;40.80;;;;;;5073049;28;20653;-64
2022/03/11 00:58:57;;;;;;;11.07;7.70;;;1.50;40.80;;;;;;5072712;28;20220;-61
2022/03/11 01:01:24;;;;;;;9.68;6.22;;;1.50;40.90;;;;;;5072939;28;20198;-61
2022/03/11 01:03:51;;;;;;;7.80;6.20;;;1.50;40.90;;;;;;5072757;28;20197;-62
2022/03/11 01:06:19;;;;;;;10.15;7.00;;;1.50;41.80;;;;;;5072652;28;20190;-61
2022/03/11 01:08:47;;;;;;;11.18;7.00;;;1.50;41.70;;;;;;5072549;28;20244;-62
2022/03/11 01:11:15;;;;;;;13.98;7.53;;;1.50;41.50;;;;;;5073038;28;20563;-62
2022/03/11 01:13:42;;;;;;;12.75;7.35;;;1.50;41.40;;;;;;5070634;28;20598;-61
2022/03/11 01:16:09;;;;;;;11.35;6.30;;;1.40;41.70;;;;;;5072726;28;20204;-62
2022/03/11 01:18:36;;;;;;;10.25;6.30;;;1.40;41.20;;;;;;5072428;28;20230;-62
2022/03/11 01:21:03;;;;;;;11.68;6.55;;;1.40;41.40;;;;;;5072527;28;20198;-62
2022/03/11 01:23:30;;;;;;;11.45;7.05;;;1.30;41.30;;;;;;5072430;28;20194;-61
2022/03/11 01:25:59;;;;;;;12.57;7.30;;;1.20;42.30;;;;;;5072723;28;20540;-62
2022/03/11 01:28:26;;;;;;;15.57;9.77;;;1.20;42.50;;;;;;5072378;28;20615;-61
2022/03/11 01:30:53;;;;;;;14.18;7.82;;;1.20;42.30;;;;;;5072012;28;20189;-61
2022/03/11 01:33:20;;;;;;;13.65;7.75;;;1.20;42.30;;;;;;5072100;28;20197;-62
2022/03/11 01:35:48;;;;;;;8.77;7.18;;;1.20;42.40;;;;;;5072297;28;20198;-61
2022/03/11 01:38:15;;;;;;;12.70;6.72;;;1.10;42.70;;;;;;5072045;28;20227;-61
2022/03/11 01:40:42;;;;;;;12.07;7.55;;;1.10;42.80;;;;;;5070026;28;20193;-62
2022/03/11 01:43:18;;;;;;;10.05;6.70;;;1.10;43.00;;;;;;5071881;28;20203;-61
2022/03/11 01:45:46;;;;;;;11.52;6.50;;;1.10;42.80;;;;;;5070660;28;20201;-61
2022/03/11 01:48:13;;;;;;;11.93;7.13;;;1.10;42.40;;;;;;5069990;28;20248;-61
2022/03/11 01:50:42;;;;;;;12.50;6.82;;;1.00;43.10;;;;;;5071609;28;20201;-61
2022/03/11 01:53:10;;;;;;;10.75;6.32;;;1.00;43.00;;;;;;5071591;28;20605;-62
2022/03/11 01:55:38;;;;;;;9.98;6.47;;;1.00;43.00;;;;;;5071690;28;20206;-65
2022/03/11 01:58:06;;;;;;;8.20;5.60;;;0.90;43.20;;;;;;5071603;28;20189;-61
2022/03/11 02:00:38;;;;;;;12.25;7.60;;;0.90;43.40;;;;;;5070682;28;20284;-62
2022/03/11 02:03:05;;;;;;;11.82;7.60;;;0.80;44.30;;;;;;5071560;28;20200;-62
2022/03/11 02:05:32;;;;;;;15.27;7.45;;;0.80;44.60;;;;;;5071724;28;20201;-62
2022/03/11 02:08:00;;;;;;;10.50;7.75;;;0.80;44.30;;;;;;5071250;28;20327;-63
2022/03/11 02:10:29;;;;;;;16.33;7.95;;;0.80;43.50;;;;;;5071535;28;20197;-62
2022/03/11 02:12:58;;;;;;;12.68;6.50;;;0.70;44.10;;;;;;5070870;28;20226;-62
2022/03/11 02:15:25;;;;;;;12.25;7.68;;;0.60;45.20;;;;;;5071883;28;20193;-62
2022/03/11 02:17:54;;;;;;;11.07;8.20;;;0.60;45.00;;;;;;5070597;28;20197;-62
2022/03/11 02:20:21;;;;;;;12.27;7.40;;;0.60;44.70;;;;;;5070624;28;20703;-62
2022/03/11 02:22:51;;;;;;;15.57;7.63;;;0.50;44.40;;;;;;5071555;28;20644;-62
2022/03/11 02:25:20;;;;;;;13.05;8.55;;;0.50;45.00;;;;;;5071359;28;20189;-61
2022/03/11 02:27:47;;;;;;;11.07;7.70;;;0.50;45.30;;;;;;5071166;28;20661;-62
2022/03/11 02:30:17;;;;;;;11.00;6.72;;;0.40;45.10;;;;;;5070636;28;20197;-64
2022/03/11 02:32:44;;;;;;;12.38;6.95;;;0.40;46.50;;;;;;5071079;28;20687;-62
2022/03/11 02:35:12;;;;;;;10.70;7.03;;;0.40;45.80;;;;;;5070964;28;20550;-62
2022/03/11 02:37:39;;;;;;;11.50;6.97;;;0.40;46.00;;;;;;5070620;28;20244;-63
2022/03/11 02:40:08;;;;;;;10.93;7.07;;;0.40;45.80;;;;;;5070914;28;20194;-63
2022/03/11 02:42:36;;;;;;;15.95;7.28;;;0.30;45.80;;;;;;5070780;28;20198;-63
2022/03/11 02:45:05;;;;;;;11.68;6.95;;;0.30;46.40;;;;;;5070718;28;20237;-63
2022/03/11 02:47:32;;;;;;;13.52;7.28;;;0.30;46.60;;;;;;5071141;28;20201;-62
2022/03/11 02:49:59;;;;;;;10.63;7.57;;;0.30;47.40;;;;;;5070389;28;20290;-62
2022/03/11 02:52:28;;;;;;;13.07;7.35;;;0.30;46.70;;;;;;5070976;28;20193;-63
2022/03/11 02:54:56;;;;;;;11.18;6.85;;;0.30;46.10;;;;;;5070118;28;20197;-62
2022/03/11 02:57:23;;;;;;;11.48;8.80;;;0.30;45.30;;;;;;5070681;28;20205;-62
2022/03/11 02:59:51;;;;;;;11.35;7.07;;;0.20;44.90;;;;;;5070269;28;20193;-63
2022/03/11 03:02:18;;;;;;;12.00;8.05;;;0.10;45.10;;;;;;5071097;28;20193;-62
2022/03/11 03:04:45;;;;;;;12.10;7.82;;;0.10;45.60;;;;;;5070353;28;20621;-62
2022/03/11 03:07:12;;;;;;;9.95;6.88;;;0.10;46.00;;;;;;5070603;28;20198;-63
2022/03/11 03:09:41;;;;;;;13.07;8.38;;;0.00;45.70;;;;;;5070291;28;20611;-62
2022/03/11 03:12:10;;;;;;;14.40;7.63;;;;;;;;;;5070325;28;20230;-63
2022/03/11 03:14:37;;;;;;;11.20;7.63;;;;;;;;;;5070860;28;20228;-62
2022/03/11 03:17:06;;;;;;;21.30;9.15;;;;;;;;;;5070217;28;20193;-63
2022/03/11 03:19:35;;;;;;;13.48;7.88;;;;;;;;;;5070780;28;20221;-63
2022/03/11 03:22:03;;;;;;;12.55;8.30;;;;;;;;;;5066623;28;20201;-63
2022/03/11 03:24:30;;;;;;;13.63;8.20;;;;;;;;;;5070481;28;20259;-62
2022/03/11 03:26:58;;;;;;;12.10;7.63;;;;;;;;;;5070689;28;20189;-63
2022/03/11 03:29:25;;;;;;;12.35;7.53;;;;;;;;;;5072022;28;20244;-63
2022/03/11 03:31:57;;;;;;;17.67;9.93;;;;;;;;;;5073661;28;20247;-62
2022/03/11 03:34:28;;;;;;;15.48;8.98;;;;;;;;;;5074911;28;20301;-65
2022/03/11 03:36:56;;;;;;;12.27;8.20;;;;;;;;;;5073954;28;20291;-62
2022/03/11 03:39:23;;;;;;;15.77;9.65;;;;;;;;;;5074395;28;20316;-63
2022/03/11 03:41:50;;;;;;;14.32;9.68;;;;;;;;;;5073361;28;20664;-62
2022/03/11 03:44:18;;;;;;;13.80;8.90;;;;;;;;;;5074486;28;20686;-62
2022/03/11 03:46:45;;;;;;;16.65;8.40;;;;;;;;;;5074168;28;20190;-63
2022/03/11 03:49:13;;;;;;;12.48;7.63;;;;;;;;;;5074408;28;20335;-62
2022/03/11 03:51:42;;;;;;;14.68;9.18;;;;;;;;;;5073704;28;20296;-63
2022/03/11 03:54:10;;;;;;;18.98;10.00;;;;;;;;;;5071286;28;20225;-63
2022/03/11 03:56:38;;;;;;;16.02;10.70;;;;;;;;;;5070995;28;20193;-63
2022/03/11 03:59:05;;;;;;;15.05;8.68;;;;;;;;;;5074336;28;20551;-62
2022/03/11 04:01:34;;;;;;;13.07;8.80;;;;;;;;;;5072917;28;20292;-63
2022/03/11 04:04:02;;;;;;;16.33;11.00;;;;;;;;;;5074037;28;20595;-62
2022/03/11 04:06:30;;;;;;;19.60;10.15;;;;;;;;;;5074448;28;20578;-62
2022/03/11 04:08:59;;;;;;;14.77;9.63;;;;;;;;;;5074048;28;20652;-63
2022/03/11 04:11:26;;;;;;;17.80;9.40;;;;;;;;;;5074352;28;20205;-63
2022/03/11 04:13:54;;;;;;;20.52;11.00;;;;;;;;;;5073864;28;20323;-62
2022/03/11 04:16:21;;;;;;;14.85;9.73;;;;;;;;;;5074026;28;20644;-62
2022/03/11 04:18:50;;;;;;;18.42;10.15;;;;;;;;;;5074163;28;20194;-63
2022/03/11 04:21:18;;;;;;;17.45;11.30;;;;;;;;;;5074054;28;20190;-62
2022/03/11 04:23:45;;;;;;;16.42;11.60;;;;;;;;;;5070604;28;20194;-62
2022/03/11 04:26:14;;;;;;;18.20;9.65;;;;;;;;;;5074214;28;20673;-62
2022/03/11 04:28:41;;;;;;;16.10;9.63;;;;;;;;;;5073825;28;20217;-62
2022/03/11 04:31:10;;;;;;;14.57;9.10;;;;;;;;;;5073501;28;20205;-62
2022/03/11 04:33:37;;;;;;;19.65;11.50;;;;;;;;;;5073450;28;20193;-62
2022/03/11 04:36:05;;;;;;;14.80;8.95;;;;;;;;;;5073969;28;20217;-63
2022/03/11 04:38:33;;;;;;;14.50;10.38;;;;;;;;;;5073328;28;20205;-62
2022/03/11 04:41:01;;;;;;;15.70;9.32;;;0.00;45.90;;;;;;5072336;28;20235;-62
2022/03/11 04:43:29;;;;;;;18.75;10.93;;;;;;;;;;5073373;28;20194;-62
2022/03/11 04:45:57;;;;;;;16.33;9.80;;;;;;;;;;5073917;28;20205;-62
2022/03/11 04:48:24;;;;;;;14.93;9.00;;;;;;;;;;5072828;28;20201;-63
2022/03/11 04:50:51;;;;;;;15.90;9.15;;;-0.80;51.00;;;;;;5073473;28;20276;-62
2022/03/11 04:53:19;;;;;;;15.85;9.55;;;;;;;;;;5070523;28;20197;-63
2022/03/11 04:55:47;;;;;;;13.65;8.88;;;;;;;;;;5073454;28;20234;-63
2022/03/11 04:58:14;;;;;;;12.88;8.52;;;;;;;;;;5072920;28;20255;-62
2022/03/11 05:00:43;;;;;;;18.98;9.85;;;;;;;;;;5072963;28;20281;-63
2022/03/11 05:03:10;;;;;;;18.80;10.13;;;;;;;;;;5072865;28;20189;-62
2022/03/11 05:05:37;;;;;;;15.55;8.88;;;;;;;;;;5072991;28;20243;-64
2022/03/11 05:08:05;;;;;;;20.73;9.40;;;;;;;;;;5072826;28;20219;-63
2022/03/11 05:10:32;;;;;;;18.02;8.95;;;;;;;;;;5072522;28;20225;-62
2022/03/11 05:13:00;;;;;;;15.32;9.40;;;;;;;;;;5072906;28;20308;-63
2022/03/11 05:15:27;;;;;;;18.67;9.77;;;;;;;;;;5073117;28;20678;-63
2022/03/11 05:17:56;;;;;;;17.00;9.20;;;;;;;;;;5072920;28;20637;-64
2022/03/11 05:20:23;;;;;;;17.23;10.00;;;;;;;;;;5070843;28;20284;-62
2022/03/11 05:22:51;;;;;;;21.23;9.85;;;;;;;;;;5072677;28;20553;-62
2022/03/11 05:25:18;;;;;;;13.23;8.43;;;;;;;;;;5073468;28;20583;-62
2022/03/11 05:27:46;;;;;;;12.95;8.07;;;;;;;;;;5072599;28;20204;-62
2022/03/11 05:30:13;;;;;;;16.52;10.20;;;;;;;;;;5072952;28;20586;-62
2022/03/11 05:32:41;;;;;;;19.98;10.60;;;;;;;;;;5072405;28;20185;-62
2022/03/11 05:35:20;;;;;;;14.00;8.82;;;;;;;;;;5073024;28;20236;-63
2022/03/11 05:37:50;;;;;;;12.75;8.40;;;;;;;;;;5072404;28;20273;-62
2022/03/11 05:40:17;;;;;;;16.88;11.27;;;;;;;;;;5072780;28;20221;-62
2022/03/11 05:42:45;;;;;;;19.92;10.95;;;;;;;;;;5072346;28;20197;-62
2022/03/11 05:45:12;;;;;;;14.48;9.10;;;;;;;;;;5072592;28;20194;-62
2022/03/11 05:47:39;;;;;;;13.13;8.88;;;-0.80;50.90;;;;;;5069908;28;20182;-62
2022/03/11 05:50:09;;;;;;;15.65;9.82;;;-1.50;50.30;;;;;;5071790;28;20576;-62
2022/03/11 05:52:37;;;;;;;19.05;10.02;;;-1.50;51.20;;;;;;5070999;28;20186;-62
2022/03/11 05:55:05;;;;;;;12.63;8.88;;;-1.40;51.20;;;;;;5071676;28;20251;-67
2022/03/11 05:57:34;;;;;;;15.27;11.00;;;-1.30;51.30;;;;;;5072575;28;20271;-62
2022/03/11 06:00:02;;;;;;;17.10;9.00;;;-1.30;50.80;;;;;;5070814;28;20203;-62
2022/03/11 06:02:29;;;;;;;14.93;9.75;;;-1.20;50.30;;;;;;5071337;28;20189;-63
2022/03/11 06:04:59;;;;;;;87.50;53.75;;;-1.20;49.90;;;;;;5072099;28;20198;-61
2022/03/11 06:07:27;;;;;;;24.75;16.58;;;-1.10;50.10;;;;;;5071676;28;20641;-62
2022/03/11 06:09:55;;;;;;;31.13;17.02;;;-1.10;50.90;;;;;;5071535;28;20235;-62
2022/03/11 06:12:23;;;;;;;22.00;15.23;;;-1.20;51.40;;;;;;5071791;28;20217;-62
2022/03/11 06:14:50;;;;;;;29.58;17.75;;;-1.20;52.10;;;;;;5071688;28;20196;-62
2022/03/11 06:17:17;;;;;;;24.17;14.98;;;-1.20;53.10;;;;;;5071904;28;20597;-63
2022/03/11 06:19:44;;;;;;;30.92;15.90;;;-1.20;53.00;;;;;;5071297;28;20196;-62
2022/03/11 06:22:14;;;;;;;25.70;15.48;;;-1.20;53.70;;;;;;5069276;28;20262;-62
2022/03/11 06:24:42;;;;;;;23.15;15.23;;;-1.10;53.20;;;;;;5071508;28;20193;-62
2022/03/11 06:27:10;;;;;;;32.85;16.75;;;-1.00;52.80;;;;;;5068281;28;20197;-62
2022/03/11 06:29:36;;;;;;;27.30;13.63;;;-0.80;53.20;;;;;;5071256;28;20224;-62
2022/03/11 06:32:04;;;;;;;20.85;12.93;;;-0.60;53.40;;;;;;5071597;28;20197;-62
2022/03/11 06:34:31;;;;;;;60.17;26.35;;;-0.40;53.00;;;;;;5071297;28;20189;-63
2022/03/11 06:36:58;;;;;;;47.83;24.98;;;-0.20;53.50;;;;;;5071941;28;20201;-64
2022/03/11 06:39:25;;;;;;;30.58;16.98;;;0.00;53.30;;;;;;5071270;28;20190;-62
2022/03/11 06:41:54;;;;;;;34.75;20.08;;;0.10;53.20;;;;;;5071434;28;20209;-62
2022/03/11 06:44:21;;;;;;;24.80;14.27;;;0.40;53.20;;;;;;5071232;28;20197;-62
2022/03/11 06:46:48;;;;;;;15.27;10.88;;;0.60;52.90;;;;;;5071741;28;20534;-62
2022/03/11 06:49:15;;;;;;;16.65;11.95;;;0.90;53.10;;;;;;5071198;28;20605;-63
2022/03/11 06:51:42;;;;;;;18.25;11.57;;;1.20;51.90;;;;;;5071247;28;20201;-62
2022/03/11 06:54:09;;;;;;;22.25;12.52;;;1.50;51.00;;;;;;5070844;28;20194;-62
2022/03/11 06:56:38;;;;;;;19.15;12.80;;;1.90;50.20;;;;;;5067406;28;20217;-65
2022/03/11 06:59:06;;;;;;;20.85;11.68;;;2.40;49.40;;;;;;5067085;28;20209;-63
2022/03/11 07:01:33;;;;;;;20.73;12.10;;;3.00;48.50;;;;;;5068155;28;20200;-65
2022/03/11 07:04:01;;;;;;;18.23;12.13;;;3.70;47.10;;;;;;5066961;28;20189;-65
2022/03/11 07:06:28;;;;;;;18.58;12.82;;;4.40;45.10;;;;;;5070703;28;20647;-63
2022/03/11 07:08:55;;;;;;;28.75;19.35;;;5.10;43.00;;;;;;5069502;28;20292;-63
2022/03/11 07:11:22;;;;;;;27.52;17.27;;;5.90;41.20;;;;;;5070353;28;20300;-66
2022/03/11 07:13:49;;;;;;;21.65;13.85;;;7.00;39.40;;;;;;5071329;28;20287;-63
2022/03/11 07:16:18;;;;;;;38.88;16.05;;;8.10;36.70;;;;;;5071832;28;20200;-63
2022/03/11 07:18:45;;;;;;;22.80;14.55;;;9.30;34.90;;;;;;5068334;28;20222;-63
2022/03/11 07:21:12;;;;;;;22.52;15.13;;;10.40;31.40;;;;;;5071198;28;20229;-63
2022/03/11 07:23:39;;;;;;;18.50;12.75;;;11.60;30.00;;;;;;5071494;28;20198;-63
2022/03/11 07:26:06;;;;;;;24.92;15.32;;;12.90;28.70;;;;;;5068578;28;20598;-64
2022/03/11 07:28:33;;;;;;;15.82;12.93;;;14.40;26.80;;;;;;5070265;28;20221;-64
2022/03/11 07:31:01;;;;;;;22.73;14.25;;;15.90;25.50;;;;;;5070486;28;20217;-64
2022/03/11 07:33:30;;;;;;;20.80;16.38;;;17.40;24.90;;;;;;5070839;28;20192;-64
2022/03/11 07:35:57;;;;;;;22.10;17.55;;;18.80;23.10;;;;;;5070841;28;20193;-64
2022/03/11 07:38:30;;;;;;;18.67;16.02;;;19.90;21.50;;;;;;5070870;28;20228;-64
2022/03/11 07:40:58;;;;;;;18.10;14.53;;;20.90;20.40;;;;;;5070422;28;20190;-66
2022/03/11 07:43:25;;;;;;;22.13;16.30;;;21.90;19.10;;;;;;5070575;28;20455;-64
2022/03/11 07:45:53;;;;;;;20.10;15.50;;;22.80;17.50;;;;;;5070738;28;20427;-66
2022/03/11 07:48:20;;;;;;;17.43;14.87;;;23.60;17.40;;;;;;5071083;28;20471;-64
2022/03/11 07:50:48;;;;;;;16.57;14.63;;;24.30;16.50;;;;;;5070591;28;20440;-64
2022/03/11 07:53:15;;;;;;;14.43;12.60;;;25.10;16.90;;;;;;5070436;28;20467;-64
2022/03/11 07:55:42;;;;;;;15.37;13.60;;;26.10;16.00;;;;;;5070348;28;20536;-65
2022/03/11 07:58:09;;;;;;;15.73;11.80;;;27.00;15.10;;;;;;5070621;28;20460;-65
2022/03/11 08:00:39;;;;;;;13.10;11.47;;;27.60;12.60;;;;;;5069910;28;20480;-65
2022/03/11 08:03:06;;;;;;;12.50;10.60;;;28.20;12.90;;;;;;5058764;28;20942;-63
2022/03/11 08:05:33;;;;;;;13.67;10.10;;;28.90;13.00;;;;;;5070383;28;20440;-63
2022/03/11 08:08:02;;;;;;;12.23;10.90;;;29.60;12.10;;;;;;5070223;28;20505;-63
2022/03/11 08:10:29;;;;;;;14.80;11.13;;;30.30;11.40;;;;;;5070279;28;20514;-63
2022/03/11 08:12:56;;;;;;;13.73;9.73;;;30.80;10.40;;;;;;5070167;28;20472;-63
2022/03/11 08:15:24;;;;;;;11.67;10.47;;;31.20;10.10;;;;;;5069692;28;20921;-64
2022/03/11 08:17:51;;;;;;;12.07;10.77;;;31.70;10.20;;;;;;5069994;28;20798;-63
2022/03/11 08:20:18;;;;;;;12.37;11.10;;;32.40;9.50;;;;;;5073205;28;20532;-63
2022/03/11 08:22:46;;;;;;;12.03;10.80;;;32.80;8.40;;;;;;5070146;28;20431;-63
2022/03/11 08:25:15;;;;;;;13.13;11.73;;;33.20;8.00;;;;;;5072697;28;20548;-63
2022/03/11 08:27:43;;;;;;;13.40;12.00;;;33.40;8.10;;;;;;5072244;28;20443;-63
2022/03/11 08:30:11;;;;;;;14.33;11.17;;;33.80;8.50;;;;;;5074848;28;20440;-63
2022/03/11 08:32:39;;;;;;;12.63;11.33;;;34.50;8.00;;;;;;5075206;28;20840;-63
2022/03/11 08:35:08;;;;;;;13.40;9.90;;;34.90;7.70;;;;;;5075759;28;20476;-63
2022/03/11 08:37:36;;;;;;;11.50;10.30;;;35.50;7.00;;;;;;5075559;28;20436;-63
2022/03/11 08:40:03;;;;;;;12.83;11.07;;;35.80;7.00;;;;;;5075273;28;20880;-63
2022/03/11 08:42:32;;;;;;;11.73;10.60;;;36.00;6.40;;;;;;5075475;28;20472;-63
2022/03/11 08:45:00;;;;;;;12.23;10.33;;;36.40;6.80;;;;;;5075453;28;20498;-63
2022/03/11 08:47:27;;;;;;;11.53;10.23;;;36.90;6.60;;;;;;5075672;28;20532;-63
2022/03/11 08:49:54;;;;;;;11.50;10.40;;;37.30;6.10;;;;;;5075189;28;20439;-63
2022/03/11 08:52:24;;;;;;;13.10;10.97;;;37.80;6.00;;;;;;5075516;28;20467;-63
2022/03/11 08:54:51;;;;;;;11.90;10.10;;;38.30;5.80;;;;;;5075444;28;20440;-63
2022/03/11 08:57:18;;;;;;;10.50;9.40;;;38.70;5.10;;;;;;5075369;28;20517;-63
2022/03/11 08:59:46;;;;;;;11.80;10.67;;;38.80;5.00;;;;;;5075219;28;20479;-63
2022/03/11 09:02:15;;;;;;;13.83;9.80;;;39.00;5.50;;;;;;5075178;28;20483;-63
2022/03/11 09:04:42;;;;;;;12.10;10.93;;;39.30;5.40;;;;;;5075007;28;20935;-63
2022/03/11 09:07:10;;;;;;;11.00;9.90;;;39.70;4.70;;;;;;5075262;28;20911;-63
2022/03/11 09:09:37;;;;;;;13.10;11.70;;;39.90;4.80;;;;;;5074965;28;20489;-63
2022/03/11 09:12:05;;;;;;;11.17;10.07;;;40.50;4.70;;;;;;5074656;28;20575;-63
2022/03/11 09:14:32;;;;;;;11.10;10.10;;;40.90;5.00;;;;;;5075019;28;20468;-63
2022/03/11 09:17:01;;;;;;;12.10;10.47;;;41.10;4.40;;;;;;5074963;28;20479;-63
2022/03/11 09:19:28;;;;;;;10.83;9.83;;;41.60;4.50;;;;;;5074709;28;20786;-63
2022/03/11 09:21:55;;;;;;;14.80;10.97;;;42.10;4.30;;;;;;5074800;28;20440;-64
2022/03/11 09:24:22;;;;;;;11.70;10.60;;;42.50;4.00;;;;;;5074892;28;20440;-64
2022/03/11 09:26:51;;;;;;;10.47;9.47;;;42.90;3.90;;;;;;5074615;28;20909;-64
2022/03/11 09:29:18;;;;;;;10.83;9.73;;;43.30;3.70;;;;;;5074804;28;20527;-63
2022/03/11 09:31:45;;;;;;;11.80;10.73;;;43.60;3.50;;;;;;5074399;28;20523;-63
2022/03/11 09:34:14;;;;;;;11.10;10.03;;;43.80;3.50;;;;;;5074461;28;20639;-64
2022/03/11 09:36:42;;;;;;;11.23;10.10;;;44.10;3.00;;;;;;5074366;28;20795;-63
2022/03/11 09:39:09;;;;;;;11.20;10.20;;;44.20;3.10;;;;;;5074473;28;20428;-64
2022/03/11 09:41:37;;;;;;;11.40;9.30;;;44.30;3.20;;;;;;5074387;28;20490;-64
2022/03/11 09:44:04;;;;;;;10.57;9.57;;;44.60;3.10;;;;;;5074463;28;20432;-63
2022/03/11 09:46:34;;;;;;;10.83;9.70;;;44.90;3.00;;;;;;5074264;28;20480;-63
2022/03/11 09:49:03;;;;;;;10.57;9.67;;;45.20;3.20;;;;;;5074141;28;20440;-64
2022/03/11 09:51:34;;;;;;;9.87;8.93;;;45.40;2.80;;;;;;5074157;28;20838;-64
2022/03/11 09:54:02;;;;;;;11.87;8.47;;;45.40;2.80;;;;;;5074184;28;20841;-64
2022/03/11 09:56:29;;;;;;;10.10;9.20;;;45.80;2.80;;;;;;5074159;28;20428;-64
2022/03/11 09:58:56;;;;;;;10.97;9.90;;;46.00;2.60;;;;;;5073908;28;20459;-64
2022/03/11 10:01:23;;;;;;;10.20;9.10;;;46.30;2.70;;;;;;5073879;28;20507;-65
2022/03/11 10:03:50;;;;;;;10.00;9.10;;;46.50;2.50;;;;;;5074062;28;20760;-64
2022/03/11 10:06:36;;;;;;;10.47;9.57;;;46.80;2.20;;;;;;5073828;28;20837;-64
2022/03/11 10:09:05;;;;;;;12.50;11.20;;;47.10;2.40;;;;;;5073696;28;20525;-64
2022/03/11 10:11:32;;;;;;;12.33;11.20;;;47.40;2.20;;;;;;5073691;28;21005;-65
2022/03/11 10:14:05;;;;;;;11.33;10.33;;;47.50;2.10;;;;;;5073422;28;20460;-65
2022/03/11 10:16:33;;;;;;;12.17;10.97;;;47.60;2.30;;;;;;5073966;28;20471;-65
2022/03/11 10:19:02;;;;;;;9.40;8.50;;;47.80;2.10;;;;;;5073413;28;20440;-64
2022/03/11 10:21:31;;;;;;;12.50;9.03;;;48.20;2.00;;;;;;5073695;28;20440;-63
2022/03/11 10:23:58;;;;;;;10.83;9.83;;;48.30;1.90;;;;;;5073589;28;20501;-63
2022/03/11 10:26:37;;;;;;;10.80;9.80;;;48.40;1.90;;;;;;5073241;28;20443;-64
2022/03/11 10:29:05;;;;;;;10.07;9.07;;;48.50;1.80;;;;;;5073488;28;20483;-64
2022/03/11 10:31:34;;;;;;;13.17;9.00;;;48.60;1.80;;;;;;5073164;28;20484;-63
2022/03/11 10:34:15;;;;;;;15.53;9.07;;;48.50;1.60;;;;;;5073560;28;20841;-63
2022/03/11 10:36:48;;;;;;;9.77;8.97;;;48.50;1.80;;;;;;5073527;28;20468;-63
2022/03/11 10:39:15;;;;;;;15.10;10.47;;;48.80;1.60;;;;;;5072420;28;20447;-63
2022/03/11 10:41:43;;;;;;;11.00;8.70;;;49.00;1.50;;;;;;5073062;28;20786;-63
2022/03/11 10:44:12;;;;;;;8.80;8.00;;;48.90;1.50;;;;;;5072269;28;20483;-63
2022/03/11 10:46:40;;;;;;;9.17;8.27;;;48.90;1.70;;;;;;5072989;28;20490;-63
2022/03/11 10:49:07;;;;;;;9.77;8.83;;;49.20;1.80;;;;;;5073220;28;20439;-63
2022/03/11 10:51:35;;;;;;;9.97;9.00;;;49.50;1.60;;;;;;5073012;28;20586;-63
2022/03/11 10:54:04;;;;;;;10.00;8.60;;;49.80;1.70;;;;;;5073000;28;20428;-64
2022/03/11 10:56:34;;;;;;;8.63;7.83;;;49.90;1.30;;;;;;5072633;28;20506;-63
2022/03/11 10:59:06;;;;;;;10.17;9.27;;;50.00;1.40;;;;;;5072853;28;20872;-63
2022/03/11 11:01:37;;;;;;;9.70;8.80;;;50.00;1.20;;;;;;5072895;28;20478;-64
2022/03/11 11:04:07;;;;;;;9.63;8.70;;;50.00;1.30;;;;;;5072682;28;20440;-63
2022/03/11 11:06:34;;;;;;;10.00;9.20;;;50.20;1.20;;;;;;5072543;28;20440;-63
2022/03/11 11:09:01;;;;;;;12.47;9.00;;;50.20;1.40;;;;;;5072583;28;20443;-63
2022/03/11 11:11:30;;;;;;;9.90;9.10;;;50.30;1.00;;;;;;5072805;28;20479;-64
2022/03/11 11:13:57;;;;;;;12.83;8.47;;;50.10;1.10;;;;;;5072889;28;20463;-63
2022/03/11 11:16:27;;;;;;;9.70;8.77;;;50.10;1.20;;;;;;5072633;28;20471;-65
2022/03/11 11:18:59;;;;;;;9.67;8.77;;;50.00;1.20;;;;;;5072950;28;20434;-64
2022/03/11 11:21:26;;;;;;;9.40;8.60;;;49.70;1.00;;;;;;5072433;28;20451;-64
2022/03/11 11:23:56;;;;;;;10.87;8.07;;;49.30;1.00;;;;;;5072526;28;20494;-63
2022/03/11 11:26:24;;;;;;;8.70;7.80;;;49.40;1.20;;;;;;5072912;28;20472;-63
2022/03/11 11:28:53;;;;;;;10.10;9.20;;;49.80;1.40;;;;;;5072832;28;20485;-63
2022/03/11 11:31:21;;;;;;;9.30;8.47;;;49.70;1.00;;;;;;5072826;28;20565;-63
2022/03/11 11:33:50;;;;;;;9.13;8.23;;;49.10;1.40;;;;;;5072726;28;20494;-64
2022/03/11 11:36:36;;;;;;;9.60;8.60;;;49.60;1.50;;;;;;5072593;28;20436;-63
2022/03/11 11:39:05;;;;;;;10.53;9.50;;;50.10;1.20;;;;;;5071864;28;20424;-63
2022/03/11 11:41:33;;;;;;;9.70;8.80;;;50.40;1.40;;;;;;5072574;28;20885;-64
2022/03/11 11:44:01;;;;;;;9.33;8.43;;;50.60;1.40;;;;;;5071976;28;20436;-63
2022/03/11 11:46:29;;;;;;;10.23;8.60;;;50.50;1.20;;;;;;5072664;28;20466;-64
2022/03/11 11:49:06;;;;;;;9.43;7.50;;;50.70;1.00;;;;;;5072285;28;20474;-64
2022/03/11 11:51:56;;;;;;;8.80;8.00;;;50.40;1.00;;;;;;5075491;28;20487;-63
2022/03/11 11:54:42;;;;;;;9.47;8.60;;;50.40;1.00;;;;;;5075997;28;20513;-63
2022/03/11 11:57:26;;;;;;;9.57;8.63;;;50.30;1.00;;;;;;5074763;28;20468;-63
2022/03/11 11:59:53;;;;;;;7.73;7.00;;;50.10;1.00;;;;;;5074669;28;20856;-64
2022/03/11 12:02:34;;;;;;;9.20;8.30;;;50.00;1.00;;;;;;5076009;28;20432;-64
2022/03/11 12:05:17;;;;;;;8.57;7.67;;;50.00;1.00;;;;;;5076220;28;20493;-64
2022/03/11 12:07:49;;;;;;;8.80;8.00;;;50.30;1.20;;;;;;5075989;28;20485;-64
2022/03/11 12:10:26;;;;;;;9.63;8.40;;;50.30;1.10;;;;;;5076215;28;20505;-63
2022/03/11 12:13:04;;;;;;;10.13;9.13;;;50.20;1.00;;;;;;5075678;28;20997;-64
2022/03/11 12:15:39;;;;;;;9.60;8.70;;;50.00;1.20;;;;;;5075915;28;20502;-64
2022/03/11 12:18:06;;;;;;;8.67;7.90;;;49.90;1.00;;;;;;5075301;28;20423;-68
2022/03/11 12:20:49;;;;;;;9.77;7.40;;;49.80;1.00;;;;;;5074637;28;20428;-64
2022/03/11 12:23:20;;;;;;;14.00;9.17;;;49.40;1.00;;;;;;5074749;28;20869;-63
2022/03/11 12:25:52;;;;;;;9.07;8.23;;;49.10;1.10;;;;;;5075269;28;20456;-63
2022/03/11 12:28:30;;;;;;;8.80;8.00;;;48.40;1.00;;;;;;5074903;28;20450;-64
2022/03/11 12:30:59;;;;;;;9.03;8.13;;;47.70;1.10;;;;;;5075531;28;20608;-63
2022/03/11 12:33:32;;;;;;;9.03;8.03;;;47.60;1.10;;;;;;5075691;28;20432;-63
2022/03/11 12:36:02;;;;;;;9.00;8.10;;;47.40;1.20;;;;;;5075647;28;20468;-63
2022/03/11 12:38:31;;;;;;;9.03;8.10;;;47.30;1.20;;;;;;5075544;28;20440;-64
2022/03/11 12:41:02;;;;;;;10.00;8.50;;;47.20;1.20;;;;;;5075638;28;20487;-63
2022/03/11 12:43:30;;;;;;;8.37;7.50;;;47.20;1.00;;;;;;5075273;28;20485;-63
2022/03/11 12:45:58;;;;;;;9.83;8.93;;;47.20;1.00;;;;;;5075496;28;20476;-64
2022/03/11 12:48:28;;;;;;;8.43;7.63;;;46.70;1.00;;;;;;5075374;28;20475;-63
2022/03/11 12:50:55;;;;;;;8.60;7.57;;;45.80;1.00;;;;;;5075201;28;20925;-65
2022/03/11 12:53:24;;;;;;;9.57;8.07;;;45.30;1.30;;;;;;5075443;28;20468;-63
2022/03/11 12:55:52;;;;;;;10.23;7.63;;;45.00;1.40;;;;;;5075340;28;20440;-63
2022/03/11 12:58:27;;;;;;;8.60;7.80;;;44.90;1.40;;;;;;5075422;28;20479;-63
2022/03/11 13:00:55;;;;;;;10.03;7.97;;;44.60;1.50;;;;;;5075271;28;20447;-64
2022/03/11 13:03:29;;;;;;;8.57;7.77;;;44.40;1.60;;;;;;5074825;28;20463;-63
2022/03/11 13:05:56;;;;;;;9.00;8.17;;;43.90;1.60;;;;;;5075226;28;20432;-63